Time;durP1;ratioP1;P1;durP2;ratioP2;P2;SDS_P1;SDS_P2;PMS_P1;PMS_P2;Temp;Humidity;BMP_temperature;BMP_pressure;BME280_temperature;BME280_humidity;BME280_pressure;Samples;Min_cycle;Max_cycle;Signal;HPM_P1;HPM_P2
2023/08/02 00:02:16;;;;;;;0.05;0.05;;;15.30;99.90;;;;;;5102220;28;20047;-70
2023/08/02 00:04:42;;;;;;;0.43;0.17;;;15.30;99.90;;;;;;5126203;27;20055;-70
2023/08/02 00:07:07;;;;;;;0.98;0.13;;;15.20;99.90;;;;;;5097281;27;20051;-71
2023/08/02 00:09:33;;;;;;;0.17;0.17;;;15.20;99.90;;;;;;5099619;27;20031;-70
2023/08/02 00:11:59;;;;;;;0.30;0.30;;;15.30;99.90;;;;;;5107472;27;20564;-70
2023/08/02 00:14:28;;;;;;;0.45;0.20;;;15.30;99.90;;;;;;5106485;27;20046;-70
2023/08/02 00:16:53;;;;;;;0.40;0.40;;;15.30;99.90;;;;;;5103770;27;20070;-69
2023/08/02 00:19:19;;;;;;;0.35;0.20;;;15.30;99.90;;;;;;5101990;27;20055;-70
2023/08/02 00:21:45;;;;;;;0.20;0.20;;;15.30;99.90;;;;;;5099186;27;20075;-70
2023/08/02 00:24:10;;;;;;;0.38;0.38;;;15.30;99.90;;;;;;5117845;27;20035;-70
2023/08/02 00:26:36;;;;;;;0.52;0.25;;;15.40;99.90;;;;;;5137674;27;20518;-69
2023/08/02 00:29:02;;;;;;;0.30;0.30;;;15.30;99.90;;;;;;5123548;27;20039;-70
2023/08/02 00:31:28;;;;;;;0.20;0.20;;;15.40;99.90;;;;;;5105607;27;20482;-69
2023/08/02 00:33:53;;;;;;;0.80;0.80;;;15.30;99.90;;;;;;5110200;27;20033;-69
2023/08/02 00:36:19;;;;;;;0.40;0.40;;;15.40;99.90;;;;;;5095238;28;20042;-69
2023/08/02 00:38:44;;;;;;;0.45;0.40;;;15.30;99.90;;;;;;5092625;28;20039;-69
2023/08/02 00:41:10;;;;;;;0.20;0.20;;;15.30;99.90;;;;;;5103656;27;20043;-70
2023/08/02 00:43:43;;;;;;;0.10;0.10;;;15.40;99.90;;;;;;5122371;27;20501;-71
2023/08/02 00:46:10;;;;;;;0.10;0.10;;;15.30;99.90;;;;;;5134084;27;20071;-70
2023/08/02 00:48:37;;;;;;;0.40;0.40;;;15.30;99.90;;;;;;5101358;27;20435;-69
2023/08/02 00:51:03;;;;;;;0.10;0.10;;;15.40;99.90;;;;;;5106375;28;20035;-69
2023/08/02 00:53:30;;;;;;;0.95;0.22;;;15.30;99.90;;;;;;5109710;28;20075;-70
2023/08/02 00:55:57;;;;;;;0.13;0.10;;;15.30;99.90;;;;;;5104399;28;20027;-70
2023/08/02 00:58:23;;;;;;;0.10;0.10;;;15.30;99.90;;;;;;5105609;28;20058;-70
2023/08/02 01:00:48;;;;;;;0.32;0.32;;;15.30;99.90;;;;;;5106653;28;20556;-69
2023/08/02 01:03:14;;;;;;;0.10;0.10;;;15.30;99.90;;;;;;5098456;28;20043;-70
2023/08/02 01:05:50;;;;;;;2.80;0.20;;;15.30;99.90;;;;;;5104415;28;20478;-70
2023/08/02 01:08:22;;;;;;;0.70;0.20;;;15.30;99.90;;;;;;5131733;27;20044;-69
2023/08/02 01:11:24;;;;;;;0.13;0.13;;;15.30;99.90;;;;;;5106881;28;20413;-70
2023/08/02 01:13:53;;;;;;;0.20;0.20;;;15.30;99.90;;;;;;5099056;28;20054;-70
2023/08/02 01:16:20;;;;;;;0.00;0.00;;;15.30;99.90;;;;;;5105959;28;20039;-70
2023/08/02 01:18:45;;;;;;;3.92;0.40;;;15.30;99.90;;;;;;5099437;27;20042;-70
2023/08/02 01:21:11;;;;;;;0.45;0.32;;;15.30;99.90;;;;;;5113861;28;20415;-69
2023/08/02 01:23:37;;;;;;;0.63;0.40;;;15.30;99.90;;;;;;5103768;28;20039;-70
2023/08/02 01:26:04;;;;;;;0.88;0.85;;;15.30;99.90;;;;;;5101316;28;20493;-71
2023/08/02 01:28:40;;;;;;;0.10;0.10;;;15.40;99.90;;;;;;5099699;28;20040;-71
2023/08/02 01:31:06;;;;;;;0.50;0.30;;;15.40;99.90;;;;;;5104644;28;20508;-70
2023/08/02 01:33:46;;;;;;;4.85;1.45;;;15.30;99.90;;;;;;5103441;28;20482;-71
2023/08/02 01:36:12;;;;;;;0.00;0.00;;;15.40;99.90;;;;;;5097483;28;20047;-71
2023/08/02 01:38:38;;;;;;;0.10;0.10;;;15.30;99.90;;;;;;5097727;28;20044;-70
2023/08/02 01:41:03;;;;;;;0.10;0.10;;;15.30;99.90;;;;;;5120720;28;20052;-70
2023/08/02 01:43:31;;;;;;;0.10;0.10;;;15.30;99.90;;;;;;5100596;28;20063;-70
2023/08/02 01:45:57;;;;;;;0.52;0.52;;;15.30;99.90;;;;;;5103250;28;20500;-70
2023/08/02 01:48:23;;;;;;;0.10;0.10;;;15.30;99.90;;;;;;5098851;28;20036;-70
2023/08/02 01:50:49;;;;;;;0.20;0.10;;;15.30;99.90;;;;;;5104381;27;20071;-70
2023/08/02 01:53:14;;;;;;;0.10;0.10;;;15.30;99.90;;;;;;5103649;27;20046;-70
2023/08/02 01:55:40;;;;;;;0.10;0.10;;;15.30;99.90;;;;;;5134181;27;20031;-70
2023/08/02 01:58:06;;;;;;;0.10;0.10;;;15.30;99.90;;;;;;5142337;27;20118;-70
2023/08/02 02:00:31;;;;;;;0.25;0.25;;;15.30;99.90;;;;;;5106718;27;20031;-70
2023/08/02 02:02:57;;;;;;;0.15;0.13;;;15.30;99.90;;;;;;5107019;27;20371;-70
2023/08/02 02:05:23;;;;;;;0.10;0.10;;;15.30;99.90;;;;;;5102290;27;20036;-71
2023/08/02 02:07:49;;;;;;;0.08;0.08;;;15.30;99.90;;;;;;5143743;27;20039;-71
2023/08/02 02:10:15;;;;;;;0.10;0.10;;;15.30;99.90;;;;;;5100193;27;20051;-71
2023/08/02 02:12:41;;;;;;;0.10;0.10;;;15.30;99.90;;;;;;5100036;27;20040;-69
2023/08/02 02:15:07;;;;;;;0.15;0.15;;;15.30;99.90;;;;;;5103441;27;20036;-70
2023/08/02 02:17:32;;;;;;;0.10;0.10;;;15.30;99.90;;;;;;5104268;28;20067;-70
2023/08/02 02:19:58;;;;;;;0.65;0.65;;;15.40;99.90;;;;;;5122727;27;20479;-70
2023/08/02 02:22:23;;;;;;;0.32;0.30;;;15.30;99.90;;;;;;5108729;27;20031;-70
2023/08/02 02:24:49;;;;;;;2.28;0.20;;;15.30;99.90;;;;;;5093014;27;20035;-70
2023/08/02 02:27:15;;;;;;;0.10;0.10;;;15.30;99.90;;;;;;5100844;28;20046;-70
2023/08/02 02:29:40;;;;;;;0.10;0.10;;;15.30;99.90;;;;;;5116579;27;20043;-70
2023/08/02 02:32:06;;;;;;;0.10;0.10;;;15.30;99.90;;;;;;5121049;27;20036;-70
2023/08/02 02:34:32;;;;;;;0.80;0.25;;;15.20;99.90;;;;;;5099323;27;20550;-70
2023/08/02 02:36:57;;;;;;;0.38;0.38;;;15.20;99.90;;;;;;5102861;27;20079;-71
2023/08/02 02:39:27;;;;;;;0.10;0.10;;;15.20;99.90;;;;;;5108828;27;20470;-70
2023/08/02 02:41:52;;;;;;;0.10;0.10;;;15.20;99.90;;;;;;5111383;27;20039;-70
2023/08/02 02:44:18;;;;;;;0.10;0.10;;;15.20;99.90;;;;;;5110340;27;20042;-70
2023/08/02 02:46:44;;;;;;;0.32;0.20;;;15.20;99.90;;;;;;5109599;27;20042;-69
2023/08/02 02:49:09;;;;;;;0.10;0.10;;;15.10;99.90;;;;;;5119328;27;20036;-70
2023/08/02 02:51:36;;;;;;;0.73;0.45;;;15.10;99.90;;;;;;5123742;27;20043;-70
2023/08/02 02:54:01;;;;;;;0.32;0.28;;;15.10;99.90;;;;;;5106265;27;20038;-70
2023/08/02 02:56:27;;;;;;;0.20;0.20;;;15.10;99.90;;;;;;5102084;27;20027;-70
2023/08/02 02:58:52;;;;;;;0.22;0.10;;;15.10;99.90;;;;;;5120165;27;20096;-71
2023/08/02 03:01:18;;;;;;;0.63;0.30;;;15.10;99.90;;;;;;5107553;27;20038;-70
2023/08/02 03:03:44;;;;;;;1.75;0.65;;;15.00;99.90;;;;;;5103283;27;20035;-70
2023/08/02 03:06:09;;;;;;;1.13;0.77;;;15.00;99.90;;;;;;5132351;27;20100;-70
2023/08/02 03:08:37;;;;;;;0.10;0.10;;;14.90;99.90;;;;;;5097291;27;20539;-69
2023/08/02 03:11:03;;;;;;;0.00;0.00;;;14.90;99.90;;;;;;5107447;27;20043;-70
2023/08/02 03:13:29;;;;;;;0.20;0.20;;;14.90;99.90;;;;;;5106553;27;20046;-70
2023/08/02 03:15:54;;;;;;;0.10;0.10;;;14.80;99.90;;;;;;5122508;27;20032;-70
2023/08/02 03:18:21;;;;;;;0.20;0.20;;;14.90;99.90;;;;;;5098499;28;20469;-70
2023/08/02 03:20:46;;;;;;;0.20;0.20;;;14.80;99.90;;;;;;5105196;28;20038;-70
2023/08/02 03:23:12;;;;;;;1.02;0.80;;;14.80;99.90;;;;;;5125172;27;20039;-70
2023/08/02 03:25:38;;;;;;;10.43;0.38;;;14.70;99.90;;;;;;5121085;27;20042;-70
2023/08/02 03:28:03;;;;;;;0.75;0.68;;;14.70;99.90;;;;;;5127155;27;20058;-70
2023/08/02 03:30:32;;;;;;;0.20;0.20;;;14.70;99.90;;;;;;5092960;27;20171;-70
2023/08/02 03:32:57;;;;;;;0.10;0.10;;;14.60;99.90;;;;;;5110282;27;20035;-69
2023/08/02 03:35:23;;;;;;;0.17;0.10;;;14.60;99.90;;;;;;5107272;28;20138;-70
2023/08/02 03:37:49;;;;;;;0.10;0.10;;;14.60;99.90;;;;;;5118658;27;20040;-70
2023/08/02 03:40:14;;;;;;;0.00;0.00;;;14.50;99.90;;;;;;5130087;27;20515;-70
2023/08/02 03:42:40;;;;;;;0.10;0.10;;;14.50;99.90;;;;;;5102373;27;20031;-70
2023/08/02 03:45:06;;;;;;;0.15;0.13;;;14.50;99.90;;;;;;5101579;27;20034;-70
2023/08/02 03:47:32;;;;;;;0.10;0.10;;;14.50;99.90;;;;;;5132482;27;20050;-70
2023/08/02 03:49:57;;;;;;;3.13;0.45;;;14.40;99.90;;;;;;5109124;27;20034;-69
2023/08/02 03:52:23;;;;;;;0.68;0.60;;;14.50;99.90;;;;;;5118912;27;20043;-70
2023/08/02 03:54:48;;;;;;;0.10;0.10;;;14.50;99.90;;;;;;5100014;28;20036;-70
2023/08/02 03:57:14;;;;;;;0.13;0.13;;;14.50;99.90;;;;;;5102337;27;20088;-69
2023/08/02 03:59:40;;;;;;;0.20;0.20;;;14.50;99.90;;;;;;5122057;27;20127;-70
2023/08/02 04:02:05;;;;;;;1.00;0.95;;;14.50;99.90;;;;;;5103832;27;20031;-70
2023/08/02 04:04:31;;;;;;;0.22;0.22;;;14.50;99.90;;;;;;5104168;27;20122;-70
2023/08/02 04:06:56;;;;;;;0.43;0.43;;;14.50;99.90;;;;;;5104190;27;20082;-70
2023/08/02 04:09:22;;;;;;;1.88;1.33;;;14.50;99.90;;;;;;5133811;27;20366;-70
2023/08/02 04:11:49;;;;;;;0.17;0.17;;;14.40;99.90;;;;;;5101518;27;20040;-70
2023/08/02 04:14:14;;;;;;;0.00;0.00;;;14.40;99.90;;;;;;5100092;27;20402;-70
2023/08/02 04:16:40;;;;;;;1.25;0.30;;;14.40;99.90;;;;;;5102611;27;20127;-70
2023/08/02 04:19:05;;;;;;;0.45;0.40;;;14.40;99.90;;;;;;5101430;27;20401;-70
2023/08/02 04:21:31;;;;;;;1.08;0.45;;;14.30;99.90;;;;;;5105975;27;20066;-69
2023/08/02 04:23:56;;;;;;;4.38;0.98;;;14.40;99.90;;;;;;5100641;27;20035;-70
2023/08/02 04:26:22;;;;;;;1.45;0.10;;;14.30;99.90;;;;;;5105170;27;20504;-70
2023/08/02 04:28:47;;;;;;;0.60;0.20;;;14.30;99.90;;;;;;5138275;27;20062;-70
2023/08/02 04:31:14;;;;;;;0.40;0.40;;;14.30;99.90;;;;;;5102778;27;20086;-69
2023/08/02 04:33:40;;;;;;;0.20;0.20;;;14.40;99.90;;;;;;5102540;28;20031;-70
2023/08/02 04:36:05;;;;;;;2.00;0.45;;;14.40;99.90;;;;;;5102161;27;20463;-70
2023/08/02 04:38:31;;;;;;;0.20;0.20;;;14.40;99.90;;;;;;5099123;28;20040;-70
2023/08/02 04:40:57;;;;;;;1.98;0.38;;;14.40;99.90;;;;;;5112480;27;20386;-70
2023/08/02 04:43:25;;;;;;;0.43;0.35;;;14.30;99.90;;;;;;5099993;27;20375;-70
2023/08/02 04:45:51;;;;;;;0.10;0.10;;;14.40;99.90;;;;;;5098974;28;20182;-70
2023/08/02 04:48:17;;;;;;;3.75;0.43;;;14.40;99.90;;;;;;5130324;27;20069;-71
2023/08/02 04:50:43;;;;;;;0.30;0.30;;;14.40;99.90;;;;;;5101924;27;20059;-70
2023/08/02 04:53:09;;;;;;;0.10;0.10;;;14.40;99.90;;;;;;5099051;28;20123;-70
2023/08/02 04:55:44;;;;;;;0.30;0.30;;;14.40;99.90;;;;;;5101263;28;20141;-71
2023/08/02 04:58:10;;;;;;;0.20;0.20;;;14.40;99.90;;;;;;5100015;28;20035;-72
2023/08/02 05:00:36;;;;;;;0.30;0.30;;;14.40;99.90;;;;;;5104719;28;20040;-70
2023/08/02 05:03:02;;;;;;;1.40;1.30;;;14.40;99.90;;;;;;5097473;28;20093;-71
2023/08/02 05:05:28;;;;;;;0.38;0.35;;;14.50;99.90;;;;;;5096577;28;20039;-71
2023/08/02 05:07:53;;;;;;;0.75;0.75;;;14.50;99.90;;;;;;5106335;28;20063;-71
2023/08/02 05:10:19;;;;;;;0.50;0.30;;;14.50;99.90;;;;;;5096875;28;20032;-71
2023/08/02 05:12:44;;;;;;;0.10;0.10;;;14.50;99.90;;;;;;5134655;27;20031;-71
2023/08/02 05:15:10;;;;;;;0.50;0.50;;;14.50;99.90;;;;;;5099536;28;20445;-71
2023/08/02 05:17:36;;;;;;;0.10;0.10;;;14.50;99.90;;;;;;5098169;28;20036;-71
2023/08/02 05:20:01;;;;;;;0.20;0.20;;;14.50;99.90;;;;;;5096398;28;20031;-70
2023/08/02 05:22:31;;;;;;;0.73;0.73;;;14.60;99.90;;;;;;5095420;28;20436;-70
2023/08/02 05:24:56;;;;;;;0.20;0.20;;;14.70;99.90;;;;;;5112876;27;20075;-70
2023/08/02 05:27:22;;;;;;;0.10;0.10;;;14.70;99.90;;;;;;5118079;27;20523;-70
2023/08/02 05:29:50;;;;;;;0.20;0.20;;;14.80;99.90;;;;;;5100506;28;20078;-70
2023/08/02 05:32:16;;;;;;;0.20;0.20;;;14.80;99.90;;;;;;5097379;28;20046;-70
2023/08/02 05:34:42;;;;;;;0.95;0.95;;;14.90;99.90;;;;;;5113457;27;20485;-71
2023/08/02 05:37:07;;;;;;;0.20;0.20;;;14.90;99.90;;;;;;5125713;27;20120;-71
2023/08/02 05:39:33;;;;;;;0.20;0.20;;;15.00;99.90;;;;;;5114669;27;20477;-71
2023/08/02 05:41:58;;;;;;;0.15;0.15;;;15.00;99.90;;;;;;5110530;28;20054;-70
2023/08/02 05:44:24;;;;;;;0.10;0.10;;;15.10;99.90;;;;;;5131268;27;20386;-70
2023/08/02 05:46:49;;;;;;;0.20;0.20;;;15.10;99.90;;;;;;5096063;27;20092;-70
2023/08/02 05:49:15;;;;;;;0.30;0.30;;;15.20;99.90;;;;;;5122584;27;20038;-69
2023/08/02 05:51:41;;;;;;;0.17;0.10;;;15.30;99.90;;;;;;5117749;27;20028;-70
2023/08/02 05:54:07;;;;;;;0.45;0.45;;;15.30;99.90;;;;;;5106195;27;20100;-71
2023/08/02 05:56:32;;;;;;;0.10;0.10;;;15.40;99.90;;;;;;5136919;27;20031;-71
2023/08/02 05:58:59;;;;;;;0.15;0.13;;;15.40;99.90;;;;;;5119606;27;20051;-71
2023/08/02 06:01:24;;;;;;;0.10;0.10;;;15.50;99.90;;;;;;5116448;27;20035;-70
2023/08/02 06:03:50;;;;;;;0.13;0.13;;;15.50;99.90;;;;;;5103610;27;20036;-71
2023/08/02 06:06:15;;;;;;;0.10;0.10;;;15.60;99.90;;;;;;5100822;27;20161;-70
2023/08/02 06:08:45;;;;;;;0.13;0.13;;;15.60;99.90;;;;;;5112076;27;20042;-70
2023/08/02 06:11:14;;;;;;;0.00;0.00;;;15.60;99.90;;;;;;5113005;27;20043;-69
2023/08/02 06:13:40;;;;;;;0.10;0.10;;;15.70;99.90;;;;;;5102967;27;20049;-70
2023/08/02 06:16:05;;;;;;;0.75;0.32;;;15.70;99.90;;;;;;5106275;27;20106;-71
2023/08/02 06:18:31;;;;;;;0.08;0.08;;;15.70;99.90;;;;;;5103882;27;20034;-70
2023/08/02 06:20:56;;;;;;;0.00;0.00;;;15.70;99.90;;;;;;5098576;27;20035;-70
2023/08/02 06:23:22;;;;;;;0.40;0.40;;;15.80;99.90;;;;;;5100925;27;20798;-69
2023/08/02 06:25:47;;;;;;;0.15;0.15;;;15.80;99.90;;;;;;5106913;27;20027;-70
2023/08/02 06:28:13;;;;;;;0.20;0.20;;;15.80;99.90;;;;;;5108196;27;20084;-70
2023/08/02 06:30:39;;;;;;;0.30;0.30;;;15.80;99.90;;;;;;5100506;27;20054;-69
2023/08/02 06:33:04;;;;;;;1.27;0.63;;;15.80;99.90;;;;;;5100005;27;20042;-69
2023/08/02 06:35:30;;;;;;;0.88;0.50;;;15.80;99.90;;;;;;5105015;27;20044;-70
2023/08/02 06:37:56;;;;;;;0.00;0.00;;;15.70;99.90;;;;;;5093356;27;20035;-71
2023/08/02 06:40:21;;;;;;;0.22;0.13;;;15.70;99.90;;;;;;5104005;27;20096;-69
2023/08/02 06:42:47;;;;;;;0.20;0.20;;;15.70;99.90;;;;;;5105909;27;20036;-70
2023/08/02 06:45:12;;;;;;;0.15;0.15;;;15.70;99.90;;;;;;5102158;27;20148;-70
2023/08/02 06:47:38;;;;;;;0.43;0.25;;;15.70;99.90;;;;;;5107345;27;20104;-71
2023/08/02 06:50:04;;;;;;;0.30;0.30;;;15.70;99.90;;;;;;5134974;27;20043;-71
2023/08/02 06:52:30;;;;;;;0.17;0.15;;;15.70;99.90;;;;;;5103346;27;20035;-71
2023/08/02 06:54:56;;;;;;;1.23;0.35;;;15.70;99.90;;;;;;5101363;27;20039;-71
2023/08/02 06:57:24;;;;;;;0.10;0.10;;;15.70;99.90;;;;;;5101447;27;20523;-73
2023/08/02 06:59:52;;;;;;;0.10;0.10;;;15.70;99.90;;;;;;5101534;27;20462;-73
2023/08/02 07:02:18;;;;;;;0.30;0.30;;;15.70;99.90;;;;;;5100204;27;20116;-73
2023/08/02 07:04:43;;;;;;;0.10;0.10;;;15.70;99.90;;;;;;5097818;27;20035;-73
2023/08/02 07:07:09;;;;;;;0.10;0.10;;;15.70;99.90;;;;;;5133602;27;20039;-71
2023/08/02 07:09:35;;;;;;;0.17;0.17;;;15.70;99.90;;;;;;5115490;27;20477;-70
2023/08/02 07:12:00;;;;;;;0.00;0.00;;;15.60;99.90;;;;;;5118941;27;20035;-69
2023/08/02 07:14:26;;;;;;;0.10;0.10;;;15.60;99.90;;;;;;5130293;27;20118;-72
2023/08/02 07:16:52;;;;;;;0.15;0.15;;;15.60;99.90;;;;;;5115043;27;20380;-70
2023/08/02 07:19:17;;;;;;;0.10;0.10;;;15.60;99.90;;;;;;5095422;27;21068;-68
2023/08/02 07:21:43;;;;;;;0.30;0.20;;;15.60;99.90;;;;;;5096298;27;20047;-69
2023/08/02 07:24:09;;;;;;;0.30;0.30;;;15.60;99.90;;;;;;5093642;27;20035;-68
2023/08/02 07:26:34;;;;;;;0.35;0.35;;;15.60;99.90;;;;;;5096607;27;20043;-68
2023/08/02 07:29:00;;;;;;;0.20;0.20;;;15.60;99.90;;;;;;5104500;27;20077;-68
2023/08/02 07:31:26;;;;;;;0.32;0.32;;;15.60;99.90;;;;;;5098492;27;20047;-68
2023/08/02 07:33:51;;;;;;;0.17;0.15;;;15.50;99.90;;;;;;5137885;27;20039;-68
2023/08/02 07:36:19;;;;;;;0.10;0.10;;;15.50;99.90;;;;;;5097573;27;20100;-69
2023/08/02 07:38:46;;;;;;;0.22;0.22;;;15.50;99.90;;;;;;5104344;28;20039;-68
2023/08/02 07:41:12;;;;;;;0.10;0.10;;;15.50;99.90;;;;;;5109942;27;20493;-68
2023/08/02 07:43:38;;;;;;;2.10;0.65;;;15.50;99.90;;;;;;5107695;27;20035;-68
2023/08/02 07:46:03;;;;;;;0.30;0.30;;;15.40;99.90;;;;;;5102735;27;20039;-68
2023/08/02 07:48:30;;;;;;;0.30;0.30;;;15.40;99.90;;;;;;5122138;27;20066;-66
2023/08/02 07:50:56;;;;;;;0.40;0.40;;;15.40;99.90;;;;;;5142908;27;20036;-67
2023/08/02 07:53:25;;;;;;;0.47;0.10;;;15.40;99.90;;;;;;5134025;27;20050;-67
2023/08/02 07:56:00;;;;;;;0.30;0.30;;;15.30;99.90;;;;;;5103691;27;20042;-68
2023/08/02 07:58:25;;;;;;;0.03;0.03;;;15.40;99.90;;;;;;5108848;27;20060;-68
2023/08/02 08:00:51;;;;;;;0.10;0.10;;;15.30;99.90;;;;;;5107192;27;20035;-70
2023/08/02 08:03:17;;;;;;;0.30;0.30;;;15.30;99.90;;;;;;5143136;27;20031;-70
2023/08/02 08:05:42;;;;;;;0.10;0.10;;;15.30;99.90;;;;;;5102086;27;20035;-74
2023/08/02 08:08:08;;;;;;;0.00;0.00;;;15.30;99.90;;;;;;5091885;27;20401;-73
2023/08/02 08:10:33;;;;;;;0.08;0.08;;;15.30;99.90;;;;;;5125398;27;20125;-71
2023/08/02 08:12:59;;;;;;;0.10;0.10;;;15.30;99.90;;;;;;5094912;28;20161;-69
2023/08/02 08:15:25;;;;;;;0.17;0.17;;;15.30;99.90;;;;;;5125826;27;20042;-68
2023/08/02 08:17:50;;;;;;;0.10;0.10;;;15.30;99.90;;;;;;5108330;28;20039;-69
2023/08/02 08:20:16;;;;;;;0.20;0.20;;;15.30;99.90;;;;;;5128066;27;20032;-68
2023/08/02 08:22:41;;;;;;;0.10;0.10;;;15.30;99.90;;;;;;5096867;27;20032;-69
2023/08/02 08:25:16;;;;;;;0.13;0.13;;;15.30;99.90;;;;;;5116474;27;20096;-66
2023/08/02 08:27:42;;;;;;;0.15;0.15;;;15.40;99.90;;;;;;5114837;28;20043;-68
2023/08/02 08:30:08;;;;;;;0.00;0.00;;;15.40;99.90;;;;;;5125179;27;20385;-67
2023/08/02 08:32:38;;;;;;;0.10;0.10;;;15.50;99.90;;;;;;5078709;28;20035;-67
2023/08/02 08:35:04;;;;;;;0.45;0.10;;;15.50;99.90;;;;;;5095540;28;20040;-66
2023/08/02 08:37:29;;;;;;;0.15;0.15;;;15.50;99.90;;;;;;5137087;27;20039;-68
2023/08/02 08:40:18;;;;;;;0.40;0.40;;;15.60;99.90;;;;;;5111080;27;20111;-66
2023/08/02 08:42:56;;;;;;;0.20;0.10;;;15.70;99.90;;;;;;5110009;28;20476;-68
2023/08/02 08:45:24;;;;;;;0.30;0.30;;;15.70;99.90;;;;;;5105399;27;20117;-68
2023/08/02 08:47:51;;;;;;;0.95;0.47;;;15.70;99.90;;;;;;5104765;28;20508;-70
2023/08/02 08:50:19;;;;;;;0.10;0.10;;;15.70;99.90;;;;;;5102160;27;21504;-69
2023/08/02 08:52:46;;;;;;;0.45;0.20;;;15.70;99.90;;;;;;5124775;27;20138;-71
2023/08/02 08:55:17;;;;;;;0.10;0.10;;;15.70;99.90;;;;;;5108277;28;20035;-74
2023/08/02 08:57:45;;;;;;;0.10;0.10;;;15.70;99.90;;;;;;5113606;28;20039;-71
2023/08/02 09:00:11;;;;;;;1.13;0.45;;;15.70;99.90;;;;;;5105831;28;20043;-74
2023/08/02 09:02:41;;;;;;;0.22;0.22;;;15.70;99.90;;;;;;5111366;27;20117;-69
2023/08/02 09:05:08;;;;;;;0.10;0.10;;;15.70;99.90;;;;;;5119890;27;20035;-72
2023/08/02 09:07:34;;;;;;;0.43;0.43;;;15.70;99.90;;;;;;5103500;27;20084;-70
2023/08/02 09:09:59;;;;;;;0.20;0.20;;;15.70;99.90;;;;;;5110267;27;20036;-71
2023/08/02 09:12:26;;;;;;;0.10;0.10;;;15.70;99.90;;;;;;5121647;27;20042;-69
2023/08/02 09:15:05;;;;;;;0.20;0.20;;;15.80;99.90;;;;;;5120969;27;20081;-69
2023/08/02 09:17:52;;;;;;;0.10;0.10;;;15.90;99.90;;;;;;5121280;27;20039;-69
2023/08/02 09:20:24;;;;;;;0.10;0.10;;;16.00;99.90;;;;;;5120326;27;20047;-70
2023/08/02 09:22:50;;;;;;;0.43;0.30;;;16.00;99.90;;;;;;5112059;27;20546;-69
2023/08/02 09:25:27;;;;;;;0.52;0.30;;;16.10;99.90;;;;;;5122984;27;20036;-69
2023/08/02 09:27:55;;;;;;;0.75;0.50;;;16.00;99.90;;;;;;5101561;28;20058;-67
2023/08/02 09:30:29;;;;;;;0.28;0.28;;;16.10;99.90;;;;;;5100975;28;20140;-68
2023/08/02 09:33:05;;;;;;;0.17;0.17;;;16.20;99.90;;;;;;5105433;28;20031;-68
2023/08/02 09:35:34;;;;;;;0.28;0.28;;;16.10;99.90;;;;;;5147415;27;20428;-68
2023/08/02 09:38:00;;;;;;;0.13;0.13;;;16.20;99.90;;;;;;5121066;27;20467;-67
2023/08/02 09:40:37;;;;;;;0.43;0.30;;;16.20;99.90;;;;;;5114013;27;20131;-68
2023/08/02 09:43:03;;;;;;;0.17;0.17;;;16.20;99.90;;;;;;5105777;27;20047;-68
2023/08/02 09:45:33;;;;;;;0.10;0.10;;;16.20;99.90;;;;;;5109916;27;20057;-68
2023/08/02 09:48:00;;;;;;;0.20;0.10;;;16.30;99.90;;;;;;5110364;27;20485;-69
2023/08/02 09:50:27;;;;;;;0.30;0.30;;;16.40;99.90;;;;;;5100239;28;20035;-69
2023/08/02 09:52:53;;;;;;;0.10;0.10;;;16.40;99.90;;;;;;5105758;27;20043;-70
2023/08/02 09:55:18;;;;;;;0.35;0.32;;;16.40;99.90;;;;;;5103451;27;20047;-70
2023/08/02 09:57:47;;;;;;;0.17;0.17;;;16.40;99.90;;;;;;5108146;27;20367;-68
2023/08/02 10:00:13;;;;;;;0.70;0.70;;;16.40;99.90;;;;;;5103140;27;20047;-68
2023/08/02 10:02:39;;;;;;;0.38;0.22;;;16.40;99.90;;;;;;5111047;27;20039;-70
2023/08/02 10:05:07;;;;;;;1.17;0.85;;;16.50;99.90;;;;;;5110372;28;20028;-68
2023/08/02 10:07:53;;;;;;;0.10;0.10;;;16.50;99.90;;;;;;5114869;27;20050;-68
2023/08/02 10:10:28;;;;;;;0.05;0.05;;;16.50;99.90;;;;;;5117444;27;20467;-67
2023/08/02 10:13:25;;;;;;;0.00;0.00;;;16.70;99.90;;;;;;5103199;27;20055;-69
2023/08/02 10:15:52;;;;;;;0.20;0.20;;;16.70;99.90;;;;;;5084564;28;20055;-68
2023/08/02 10:18:18;;;;;;;0.10;0.10;;;16.60;99.90;;;;;;5113244;27;20092;-66
2023/08/02 10:20:45;;;;;;;0.00;0.00;;;16.70;99.90;;;;;;5117365;27;20465;-67
2023/08/02 10:23:11;;;;;;;0.10;0.10;;;16.70;99.90;;;;;;5101979;27;20092;-67
2023/08/02 10:25:37;;;;;;;0.10;0.10;;;16.80;99.90;;;;;;5100252;27;20482;-68
2023/08/02 10:28:03;;;;;;;0.10;0.10;;;16.90;99.90;;;;;;5121184;27;20079;-67
2023/08/02 10:30:30;;;;;;;0.25;0.10;;;17.00;99.90;;;;;;5115403;27;20035;-68
2023/08/02 10:33:13;;;;;;;0.13;0.13;;;17.00;99.90;;;;;;5098532;28;20047;-67
2023/08/02 10:36:10;;;;;;;0.10;0.10;;;17.10;99.90;;;;;;5099770;27;20075;-66
2023/08/02 10:38:38;;;;;;;0.20;0.20;;;17.00;99.90;;;;;;5108445;27;20149;-68
2023/08/02 10:41:10;;;;;;;0.10;0.10;;;17.00;99.90;;;;;;5139183;27;20043;-68
2023/08/02 10:43:54;;;;;;;0.10;0.10;;;17.10;99.90;;;;;;5106999;27;20035;-68
2023/08/02 10:46:21;;;;;;;0.35;0.10;;;17.30;99.90;;;;;;5097015;28;20482;-66
2023/08/02 10:48:46;;;;;;;0.10;0.10;;;17.40;99.90;;;;;;5107421;27;20047;-67
2023/08/02 10:51:31;;;;;;;0.10;0.10;;;17.60;99.90;;;;;;5113339;27;20070;-67
2023/08/02 10:54:19;;;;;;;0.00;0.00;;;17.60;99.90;;;;;;5111626;28;20118;-66
2023/08/02 11:00:29;;;;;;;0.10;0.10;;;17.60;99.90;;;;;;5136864;27;20050;-67
2023/08/02 11:02:55;;;;;;;0.05;0.05;;;17.70;99.90;;;;;;5108867;28;20042;-67
2023/08/02 11:05:35;;;;;;;0.17;0.17;;;17.70;99.90;;;;;;5112894;27;20039;-68
2023/08/02 11:08:01;;;;;;;0.10;0.10;;;18.00;99.90;;;;;;5118026;27;20050;-67
2023/08/02 11:10:27;;;;;;;0.10;0.10;;;18.20;99.90;;;;;;5117981;27;20039;-66
2023/08/02 11:12:54;;;;;;;0.25;0.25;;;18.30;99.90;;;;;;5117974;27;20113;-67
2023/08/02 11:15:20;;;;;;;0.10;0.10;;;18.40;99.90;;;;;;5117913;27;20039;-68
2023/08/02 11:17:54;;;;;;;0.10;0.10;;;18.60;99.90;;;;;;5117954;27;20039;-69
2023/08/02 11:20:27;;;;;;;0.00;0.00;;;18.70;99.90;;;;;;5117886;27;20396;-67
2023/08/02 11:23:30;;;;;;;0.00;0.00;;;18.80;99.90;;;;;;5116651;28;20039;-68
2023/08/02 11:26:09;;;;;;;0.10;0.10;;;19.00;99.90;;;;;;5110985;27;20533;-68
2023/08/02 11:28:42;;;;;;;0.30;0.30;;;19.20;99.90;;;;;;5130742;27;20043;-70
2023/08/02 11:31:09;;;;;;;0.10;0.10;;;19.40;99.90;;;;;;5097677;28;20096;-70
2023/08/02 11:33:35;;;;;;;0.00;0.00;;;19.50;99.90;;;;;;5099270;27;20118;-71
2023/08/02 11:36:01;;;;;;;0.10;0.10;;;19.70;99.90;;;;;;5122375;27;20039;-70
2023/08/02 11:38:27;;;;;;;0.40;0.40;;;19.80;99.90;;;;;;5132410;27;20046;-70
2023/08/02 11:40:52;;;;;;;0.68;0.25;;;19.90;99.90;;;;;;5118415;27;20039;-72
2023/08/02 11:43:18;;;;;;;1.63;0.32;;;20.10;99.90;;;;;;5106871;27;20039;-71
2023/08/02 11:45:44;;;;;;;0.20;0.20;;;20.20;99.90;;;;;;5124276;27;20039;-70
2023/08/02 11:48:25;;;;;;;0.15;0.15;;;20.30;99.90;;;;;;5148960;27;20498;-70
2023/08/02 11:50:52;;;;;;;1.38;0.30;;;20.50;99.90;;;;;;5109705;27;20054;-69
2023/08/02 11:53:18;;;;;;;0.22;0.22;;;20.60;99.90;;;;;;5096520;28;20047;-69
2023/08/02 11:55:44;;;;;;;0.13;0.13;;;20.70;99.90;;;;;;5096742;28;20482;-69
2023/08/02 11:58:10;;;;;;;0.40;0.20;;;20.70;99.90;;;;;;5096501;28;20432;-69
2023/08/02 12:00:37;;;;;;;0.10;0.10;;;20.60;99.90;;;;;;5096370;28;20110;-69
2023/08/02 12:03:13;;;;;;;0.45;0.45;;;20.40;99.90;;;;;;5096348;28;20447;-68
2023/08/02 12:05:41;;;;;;;0.20;0.17;;;20.20;99.90;;;;;;5139109;27;20118;-69
2023/08/02 12:08:11;;;;;;;0.17;0.17;;;20.20;99.90;;;;;;5114053;27;20122;-68
2023/08/02 12:10:38;;;;;;;1.17;0.88;;;20.30;99.90;;;;;;5117106;27;20047;-70
2023/08/02 12:13:14;;;;;;;0.47;0.40;;;20.60;99.90;;;;;;5116698;27;20039;-68
2023/08/02 12:15:44;;;;;;;0.55;0.30;;;20.80;99.90;;;;;;5116081;27;20074;-70
2023/08/02 12:18:09;;;;;;;0.98;0.28;;;21.00;99.90;;;;;;5102641;27;20043;-68
2023/08/02 12:20:35;;;;;;;0.10;0.10;;;20.90;99.90;;;;;;5107933;28;20032;-68
2023/08/02 12:26:42;;;;;;;0.10;0.10;;;20.80;99.90;;;;;;5114454;28;20034;-68
2023/08/02 12:29:08;;;;;;;0.40;0.38;;;20.70;99.90;;;;;;5096446;28;20039;-68
2023/08/02 12:35:15;;;;;;;0.20;0.20;;;20.80;99.90;;;;;;5133966;27;20060;-70
2023/08/02 12:37:41;;;;;;;0.43;0.43;;;20.70;99.90;;;;;;5116316;27;20423;-69
2023/08/02 12:40:07;;;;;;;0.10;0.10;;;20.70;99.90;;;;;;5116425;27;20043;-69
2023/08/02 12:46:16;;;;;;;0.10;0.10;;;20.40;99.90;;;;;;5134801;27;20057;-69
2023/08/02 12:48:43;;;;;;;0.30;0.30;;;20.30;99.90;;;;;;5116506;28;20043;-69
2023/08/02 12:51:09;;;;;;;0.10;0.10;;;20.20;99.90;;;;;;5116294;27;20212;-70
2023/08/02 12:53:34;;;;;;;0.30;0.30;;;20.10;99.90;;;;;;5116628;27;20539;-69
2023/08/02 12:56:00;;;;;;;0.20;0.20;;;20.00;99.90;;;;;;5135105;27;20075;-70
2023/08/02 12:58:26;;;;;;;0.50;0.50;;;20.00;99.90;;;;;;5098530;28;20052;-70
2023/08/02 13:00:53;;;;;;;0.32;0.32;;;20.10;99.90;;;;;;5120784;28;20041;-70
2023/08/02 13:03:19;;;;;;;0.10;0.10;;;20.20;99.90;;;;;;5096307;28;20039;-69
2023/08/02 13:05:45;;;;;;;0.95;0.68;;;20.60;99.90;;;;;;5112958;28;20060;-69